Time;durP1;ratioP1;P1;durP2;ratioP2;P2;SDS_P1;SDS_P2;PMS_P1;PMS_P2;Temp;Humidity;BMP_temperature;BMP_pressure;BME280_temperature;BME280_humidity;BME280_pressure;Samples;Min_cycle;Max_cycle;Signal;HPM_P1;HPM_P2
2023/04/05 00:00:54;;;;;;;12.73;7.57;;;;;;;;;;4981090;28;20190;-45
2023/04/05 00:03:20;;;;;;;10.63;7.57;;;;;;;;;;4983450;28;20173;-45
2023/04/05 00:05:48;;;;;;;9.10;6.45;;;;;;;;;;4983735;28;20932;-45
2023/04/05 00:08:22;;;;;;;10.52;6.65;;;;;;;;;;4987944;28;20169;-44
2023/04/05 00:10:48;;;;;;;11.27;6.70;;;;;;;;;;4983969;28;20233;-45
2023/04/05 00:13:14;;;;;;;11.63;7.50;;;;;;;;;;4979803;28;20181;-45
2023/04/05 00:15:41;;;;;;;21.15;7.22;;;;;;;;;;4983049;28;20547;-45
2023/04/05 00:18:07;;;;;;;10.82;6.88;;;;;;;;;;4986324;28;20224;-46
2023/04/05 00:20:36;;;;;;;12.40;8.40;;;;;;;;;;4986714;28;20212;-45
2023/04/05 00:23:05;;;;;;;21.95;8.98;;;;;;;;;;4983896;28;20417;-46
2023/04/05 00:25:32;;;;;;;17.10;8.43;;;;;;;;;;4984320;28;20203;-45
2023/04/05 00:28:00;;;;;;;15.43;8.77;;;;;;;;;;4984809;28;20181;-44
2023/04/05 00:30:28;;;;;;;13.00;7.47;;;;;;;;;;4983520;28;20201;-46
2023/04/05 00:32:54;;;;;;;14.00;9.25;;;;;;;;;;4983544;28;20632;-45
2023/04/05 00:35:21;;;;;;;16.98;8.50;;;;;;;;;;4983138;28;20630;-45
2023/04/05 00:37:47;;;;;;;13.27;7.47;;;;;;;;;;4990704;28;20268;-44
2023/04/05 00:40:13;;;;;;;19.17;7.80;;;;;;;;;;4981704;28;20272;-45
2023/04/05 00:42:39;;;;;;;12.40;8.27;;;;;;;;;;4986453;28;20912;-46
2023/04/05 00:45:05;;;;;;;12.10;7.43;;;;;;;;;;4981113;28;20231;-46
2023/04/05 00:47:31;;;;;;;15.40;7.72;;;;;;;;;;4983038;28;20537;-45
2023/04/05 00:49:57;;;;;;;20.50;7.47;;;;;;;;;;4985185;28;20292;-44
2023/04/05 00:52:23;;;;;;;15.00;7.90;;;;;;;;;;4989687;28;20413;-44
2023/04/05 00:54:50;;;;;;;9.10;6.60;;;;;;;;;;4990931;28;20412;-45
2023/04/05 00:57:17;;;;;;;20.08;6.93;;;;;;;;;;4977607;28;20428;-45
2023/04/05 00:59:43;;;;;;;18.42;7.72;;;;;;;;;;4978870;28;20175;-46
2023/04/05 01:02:23;;;;;;;9.20;6.30;;;;;;;;;;4984898;28;20182;-46
2023/04/05 01:04:52;;;;;;;7.72;6.78;;;;;;;;;;4982592;28;20449;-45
2023/04/05 01:07:18;;;;;;;10.15;6.18;;;;;;;;;;4982141;28;20201;-45
2023/04/05 01:09:58;;;;;;;14.55;6.30;;;;;;;;;;4982490;28;20170;-44
2023/04/05 01:12:27;;;;;;;12.85;7.43;;;;;;;;;;4982116;28;20177;-46
2023/04/05 01:14:53;;;;;;;12.15;7.00;;;;;;;;;;4982347;28;20177;-45
2023/04/05 01:17:21;;;;;;;14.27;7.30;;;;;;;;;;4982334;28;20204;-45
2023/04/05 01:19:52;;;;;;;12.77;7.00;;;;;;;;;;4987103;28;20212;-46
2023/04/05 01:22:36;;;;;;;13.80;6.70;;;;;;;;;;4978730;28;20516;-46
2023/04/05 01:25:27;;;;;;;11.85;7.40;;;;;;;;;;4979704;28;20180;-46
2023/04/05 01:28:08;;;;;;;10.60;7.20;;;;;;;;;;4982578;28;20678;-45
2023/04/05 01:30:39;;;;;;;10.93;6.57;;;;;;;;;;4986797;28;20217;-44
2023/04/05 01:33:18;;;;;;;9.10;6.20;;;;;;;;;;4985914;28;20180;-46
2023/04/05 01:35:51;;;;;;;15.70;6.88;;;;;;;;;;4981758;28;20201;-44
2023/04/05 01:38:19;;;;;;;9.90;6.43;;;;;;;;;;4982171;28;20700;-45
2023/04/05 01:40:45;;;;;;;9.48;6.07;;;;;;;;;;4982227;28;20579;-44
2023/04/05 01:43:20;;;;;;;9.25;6.95;;;;;;;;;;4982873;28;20178;-44
2023/04/05 01:45:46;;;;;;;11.07;7.05;;;;;;;;;;4977945;28;20335;-45
2023/04/05 01:48:13;;;;;;;16.30;6.95;;;;;;;;;;4987540;28;20196;-45
2023/04/05 01:50:39;;;;;;;13.65;6.22;;;;;;;;;;4984198;28;20798;-44
2023/04/05 01:53:07;;;;;;;8.88;6.13;;;;;;;;;;4979848;28;20177;-44
2023/04/05 01:55:33;;;;;;;10.32;7.03;;;;;;;;;;4980461;28;20170;-44
2023/04/05 01:57:59;;;;;;;10.85;7.63;;;;;;;;;;4983510;28;20185;-44
2023/04/05 02:00:26;;;;;;;15.98;6.55;;;;;;;;;;4985444;28;20169;-44
2023/04/05 02:02:52;;;;;;;12.07;6.22;;;;;;;;;;4985872;28;20268;-45
2023/04/05 02:05:18;;;;;;;11.40;6.70;;;;;;;;;;4984847;28;20217;-44
2023/04/05 02:07:45;;;;;;;8.03;6.90;;;;;;;;;;4983269;28;20433;-44
2023/04/05 02:10:11;;;;;;;12.50;6.55;;;;;;;;;;4976938;28;20456;-44
2023/04/05 02:12:36;;;;;;;12.27;7.20;;;;;;;;;;4985127;28;20600;-45
2023/04/05 02:15:03;;;;;;;12.77;7.23;;;;;;;;;;4981305;28;20186;-45
2023/04/05 02:17:32;;;;;;;13.40;7.03;;;;;;;;;;4982678;28;20881;-44
2023/04/05 02:20:01;;;;;;;12.70;8.20;;;;;;;;;;4982263;28;20173;-45
2023/04/05 02:22:27;;;;;;;18.80;9.43;;;;;;;;;;4982026;28;20227;-45
2023/04/05 02:24:53;;;;;;;15.00;8.37;;;;;;;;;;4982085;28;20665;-44
2023/04/05 02:27:18;;;;;;;11.98;8.05;;;;;;;;;;4981306;28;21131;-45
2023/04/05 02:29:45;;;;;;;10.47;7.80;;;;;;;;;;4985763;28;20176;-44
2023/04/05 02:32:11;;;;;;;13.40;7.65;;;;;;;;;;4980398;28;20833;-45
2023/04/05 02:34:40;;;;;;;17.17;8.50;;;;;;;;;;4980378;28;20200;-45
2023/04/05 02:37:06;;;;;;;12.30;8.52;;;;;;;;;;4981804;28;20417;-45
2023/04/05 02:39:32;;;;;;;9.18;7.25;;;;;;;;;;4981204;28;20277;-44
2023/04/05 02:41:58;;;;;;;13.30;7.80;;;;;;;;;;4982468;28;20225;-44
2023/04/05 02:44:24;;;;;;;10.90;7.20;;;;;;;;;;4984712;28;20574;-44
2023/04/05 02:46:50;;;;;;;13.95;7.95;;;;;;;;;;4979951;28;20202;-44
2023/04/05 02:49:16;;;;;;;18.80;8.80;;;;;;;;;;4984283;28;20667;-44
2023/04/05 02:51:42;;;;;;;19.30;8.77;;;;;;;;;;4978253;28;20464;-44
2023/04/05 02:54:08;;;;;;;13.70;8.50;;;;;;;;;;4982562;28;20212;-44
2023/04/05 02:56:35;;;;;;;14.63;7.63;;;;;;;;;;4983863;28;20425;-44
2023/04/05 02:59:01;;;;;;;10.57;7.95;;;;;;;;;;4982866;28;20411;-44
2023/04/05 03:01:27;;;;;;;14.50;7.70;;;;;;;;;;4983387;28;20264;-44
2023/04/05 03:03:53;;;;;;;15.88;8.98;;;;;;;;;;4983665;28;20424;-44
2023/04/05 03:06:21;;;;;;;13.27;7.82;;;;;;;;;;4978018;28;20255;-46
2023/04/05 03:08:48;;;;;;;9.57;7.80;;;;;;;;;;4984554;28;20261;-44
2023/04/05 03:11:14;;;;;;;11.65;7.32;;;;;;;;;;4981791;28;20204;-44
2023/04/05 03:13:42;;;;;;;14.02;7.47;;;;;;;;;;4980829;28;20197;-44
2023/04/05 03:16:08;;;;;;;10.55;6.82;;;;;;;;;;4985463;28;20201;-44
2023/04/05 03:18:34;;;;;;;10.77;7.43;;;;;;;;;;4981205;28;20166;-44
2023/04/05 03:21:00;;;;;;;16.48;8.07;;;;;;;;;;4982725;28;20419;-44
2023/04/05 03:23:28;;;;;;;12.00;7.00;;;;;;;;;;4985360;28;20170;-45
2023/04/05 03:25:55;;;;;;;11.93;8.30;;;;;;;;;;4990559;28;20436;-44
2023/04/05 03:28:22;;;;;;;13.07;8.35;;;;;;;;;;4985282;28;20172;-45
2023/04/05 03:30:48;;;;;;;14.68;9.05;;;;;;;;;;4982482;28;20197;-44
2023/04/05 03:33:14;;;;;;;15.02;8.32;;;;;;;;;;4985802;28;20165;-44
2023/04/05 03:35:40;;;;;;;14.80;9.43;;;;;;;;;;4985137;28;20570;-45
2023/04/05 03:38:06;;;;;;;9.90;7.77;;;;;;;;;;4986922;28;20416;-44
2023/04/05 03:40:32;;;;;;;14.23;8.55;;;;;;;;;;4986107;28;20984;-44
2023/04/05 03:42:58;;;;;;;11.10;7.43;;;;;;;;;;4987114;28;20188;-44
2023/04/05 03:45:25;;;;;;;16.77;8.77;;;;;;;;;;4980403;28;20183;-44
2023/04/05 03:47:52;;;;;;;16.15;7.38;;;;;;;;;;4980901;28;20716;-44
2023/04/05 03:50:18;;;;;;;15.45;8.70;;;;;;;;;;4986130;28;20201;-44
2023/04/05 03:52:45;;;;;;;15.55;8.15;;;;;;;;;;4972641;28;20182;-44
2023/04/05 03:55:12;;;;;;;13.80;8.07;;;;;;;;;;4984691;28;20588;-44
2023/04/05 03:57:38;;;;;;;10.57;7.63;;;;;;;;;;4986475;28;20235;-44
2023/04/05 04:00:13;;;;;;;17.25;8.98;;;;;;;;;;4985725;28;20189;-44
2023/04/05 04:02:40;;;;;;;10.48;7.88;;;;;;;;;;4987681;28;20171;-44
2023/04/05 04:05:06;;;;;;;13.90;9.45;;;;;;;;;;4985690;28;20210;-46
2023/04/05 04:07:32;;;;;;;13.18;8.15;;;;;;;;;;4987657;28;20580;-44
2023/04/05 04:09:58;;;;;;;9.90;7.90;;;;;;;;;;4983260;28;20202;-44
2023/04/05 04:12:24;;;;;;;13.73;9.80;;;;;;;;;;4985452;28;20875;-44
2023/04/05 04:14:50;;;;;;;15.90;7.53;;;;;;;;;;4988718;28;20769;-44
2023/04/05 04:17:32;;;;;;;10.90;7.45;;;;;;;;;;4983520;28;20468;-44
2023/04/05 04:19:59;;;;;;;13.82;8.20;;;;;;;;;;4985537;28;20676;-44
2023/04/05 04:22:25;;;;;;;12.85;7.82;;;;;;;;;;4988442;28;20177;-45
2023/04/05 04:24:54;;;;;;;10.10;7.60;;;;;;;;;;4987906;28;20177;-44
2023/04/05 04:27:20;;;;;;;13.73;9.43;;;;;;;;;;4982479;28;20200;-45
2023/04/05 04:29:46;;;;;;;14.75;7.97;;;;;;;;;;4980636;28;20180;-44
2023/04/05 04:32:14;;;;;;;9.35;7.20;;;;;;;;;;4986900;28;20173;-44
2023/04/05 04:34:43;;;;;;;19.98;8.05;;;;;;;;;;4986424;28;20165;-44
2023/04/05 04:37:21;;;;;;;15.80;7.95;;;;;;;;;;4986529;28;20747;-44
2023/04/05 04:39:48;;;;;;;16.27;7.85;;;;;;;;;;4980131;28;20181;-44
2023/04/05 04:42:18;;;;;;;11.60;8.00;;;;;;;;;;4986330;28;20177;-45
2023/04/05 04:44:45;;;;;;;12.07;7.82;;;;;;;;;;4977835;28;20169;-45
2023/04/05 04:47:16;;;;;;;15.00;8.75;;;;;;;;;;4983688;28;20210;-45
2023/04/05 04:49:42;;;;;;;13.05;8.65;;;;;;;;;;4988360;28;20169;-44
2023/04/05 04:52:08;;;;;;;12.13;9.35;;;;;;;;;;4983098;28;20192;-44
2023/04/05 04:54:35;;;;;;;13.68;9.13;;;;;;;;;;4983685;28;20679;-44
2023/04/05 04:57:01;;;;;;;15.35;9.27;;;;;;;;;;4984648;28;20220;-45
2023/04/05 04:59:29;;;;;;;9.38;7.25;;;;;;;;;;4983715;28;20198;-45
2023/04/05 05:01:55;;;;;;;14.25;9.48;;;;;;;;;;4984341;28;20185;-44
2023/04/05 05:04:22;;;;;;;14.23;7.40;;;;;;;;;;4988728;28;20186;-44
2023/04/05 05:06:50;;;;;;;11.85;8.15;;;;;;;;;;4987634;28;20530;-44
2023/04/05 05:09:16;;;;;;;14.40;8.60;;;;;;;;;;4974125;28;20547;-44
2023/04/05 05:11:42;;;;;;;15.97;9.77;;;;;;;;;;4980986;28;20208;-45
2023/04/05 05:14:08;;;;;;;11.40;8.23;;;;;;;;;;4985736;28;20412;-44
2023/04/05 05:16:34;;;;;;;21.83;8.27;;;;;;;;;;4986890;28;20447;-44
2023/04/05 05:19:00;;;;;;;11.25;7.70;;;;;;;;;;4989376;28;20515;-44
2023/04/05 05:21:26;;;;;;;13.77;8.83;;;;;;;;;;4982039;28;20613;-44
2023/04/05 05:23:52;;;;;;;13.95;8.95;;;;;;;;;;4985163;28;20903;-44
2023/04/05 05:26:18;;;;;;;13.07;8.23;;;;;;;;;;4980228;28;20231;-45
2023/04/05 05:28:45;;;;;;;14.00;8.13;;;;;;;;;;4986173;28;20884;-44
2023/04/05 05:31:13;;;;;;;20.38;9.93;;;;;;;;;;4977995;28;20467;-44
2023/04/05 05:33:39;;;;;;;15.43;10.05;;;;;;;;;;4984187;28;20514;-44
2023/04/05 05:36:05;;;;;;;12.93;9.00;;;;;;;;;;4984600;28;20189;-44
2023/04/05 05:38:31;;;;;;;16.92;8.70;;;;;;;;;;4983645;28;20275;-44
2023/04/05 05:40:57;;;;;;;10.63;7.97;;;;;;;;;;4984108;28;20213;-44
2023/04/05 05:43:23;;;;;;;14.15;8.07;;;;;;;;;;4982839;28;20414;-44
2023/04/05 05:45:49;;;;;;;22.73;9.52;;;;;;;;;;4989080;28;20271;-44
2023/04/05 05:48:15;;;;;;;14.00;8.10;;;;;;;;;;4983362;28;20256;-44
2023/04/05 05:50:41;;;;;;;14.60;8.37;;;;;;;;;;4980659;28;20449;-44
2023/04/05 05:53:07;;;;;;;18.40;8.80;;;;;;;;;;4976221;28;20428;-44
2023/04/05 05:55:33;;;;;;;11.50;7.73;;;;;;;;;;4985930;28;20431;-44
2023/04/05 05:57:59;;;;;;;17.70;8.93;;;;;;;;;;4985392;28;20408;-45
2023/04/05 06:00:26;;;;;;;14.82;9.73;;;;;;;;;;4987117;28;20180;-44
2023/04/05 06:02:53;;;;;;;21.67;9.80;;;;;;;;;;4987293;28;20176;-44
2023/04/05 06:05:19;;;;;;;18.00;9.60;;;;;;;;;;4981401;28;20192;-44
2023/04/05 06:07:45;;;;;;;16.15;9.43;;;;;;;;;;4979621;28;20252;-44
2023/04/05 06:10:12;;;;;;;25.17;10.77;;;;;;;;;;4983936;28;20192;-44
2023/04/05 06:12:38;;;;;;;19.83;10.57;;;;;;;;;;4984627;28;20176;-43
2023/04/05 06:15:04;;;;;;;17.03;10.73;;;;;;;;;;4983428;28;20174;-44
2023/04/05 06:17:30;;;;;;;17.17;9.40;;;;;;;;;;4980925;28;20494;-43
2023/04/05 06:19:56;;;;;;;37.80;12.35;;;;;;;;;;4983218;28;20227;-43
2023/04/05 06:22:23;;;;;;;19.37;10.80;;;;;;;;;;4979065;28;20660;-43
2023/04/05 06:24:49;;;;;;;19.73;10.23;;;;;;;;;;4983710;28;20413;-44
2023/04/05 06:27:15;;;;;;;17.63;10.80;;;;;;;;;;4974444;28;20197;-44
2023/04/05 06:29:41;;;;;;;23.60;10.80;;;;;;;;;;4973378;28;20420;-43
2023/04/05 06:32:07;;;;;;;18.43;11.77;;;;;;;;;;4974794;28;20436;-44
2023/04/05 06:34:33;;;;;;;24.90;11.37;;;;;;;;;;4980647;28;20483;-44
2023/04/05 06:36:59;;;;;;;30.07;13.40;;;;;;;;;;4981344;28;20508;-44
2023/04/05 06:39:25;;;;;;;26.57;14.80;;;;;;;;;;4985175;28;20408;-45
2023/04/05 06:41:51;;;;;;;23.60;12.30;;;;;;;;;;4983116;28;20432;-44
2023/04/05 06:44:17;;;;;;;31.10;12.63;;;;;;;;;;4986164;28;20421;-43
2023/04/05 06:46:43;;;;;;;20.73;11.60;;;;;;;;;;4982904;28;20440;-44
2023/04/05 06:49:09;;;;;;;30.67;11.20;;;;;;;;;;4978833;28;20443;-43
2023/04/05 06:51:35;;;;;;;17.58;10.80;;;;;;;;;;4980900;28;20468;-44
2023/04/05 06:54:01;;;;;;;24.50;12.30;;;;;;;;;;4981625;28;20177;-44
2023/04/05 06:56:27;;;;;;;20.40;11.60;;;;;;;;;;4983705;28;20430;-44
2023/04/05 06:58:54;;;;;;;19.45;10.60;;;;;;;;;;4981307;28;20420;-45
2023/04/05 07:01:20;;;;;;;21.35;12.25;;;;;;;;;;4981033;28;20212;-44
2023/04/05 07:03:46;;;;;;;25.20;11.53;;;;;;;;;;4973628;28;20209;-44
2023/04/05 07:06:12;;;;;;;20.83;12.38;;;;;;;;;;4982598;28;20507;-44
2023/04/05 07:08:38;;;;;;;27.60;13.77;;;;;;;;;;4982778;28;20181;-45
2023/04/05 07:11:04;;;;;;;24.53;12.37;;;;;;;;;;4981810;28;20466;-44
2023/04/05 07:13:30;;;;;;;26.10;12.13;;;;;;;;;;4982132;28;20904;-45
2023/04/05 07:16:00;;;;;;;23.27;11.80;;;;;;;;;;4981002;28;20434;-45
2023/04/05 07:18:27;;;;;;;19.23;10.77;;;;;;;;;;4980186;28;20420;-45
2023/04/05 07:20:58;;;;;;;24.83;11.17;;;;;;;;;;4973509;28;20856;-44
2023/04/05 07:23:25;;;;;;;20.87;10.30;;;;;;;;;;4983156;28;20464;-45
2023/04/05 07:25:50;;;;;;;15.40;9.73;;;;;;;;;;4980029;28;20506;-45
2023/04/05 07:28:16;;;;;;;16.77;9.20;;;;;;;;;;4980148;28;20906;-45
2023/04/05 07:30:42;;;;;;;20.53;11.00;;;;;;;;;;4979122;28;20596;-44
2023/04/05 07:33:08;;;;;;;11.57;7.60;;;;;;;;;;4981931;28;20744;-44
2023/04/05 07:35:35;;;;;;;15.33;7.70;;;;;;;;;;4978493;28;20411;-45
2023/04/05 07:38:01;;;;;;;12.40;8.00;;;;;;;;;;4978955;28;20414;-45
2023/04/05 07:40:27;;;;;;;10.80;7.00;;;;;;;;;;4979107;28;20433;-45
2023/04/05 07:42:53;;;;;;;10.97;7.23;;;;;;;;;;4985263;28;20407;-44
2023/04/05 07:45:19;;;;;;;15.40;7.67;;;;;;;;;;4978469;28;20413;-44
2023/04/05 07:47:45;;;;;;;12.10;8.90;;;;;;;;;;4978021;28;20416;-44
2023/04/05 07:50:13;;;;;;;10.47;8.20;;;;;;;;;;4980069;28;20506;-45
2023/04/05 07:52:40;;;;;;;9.50;8.50;;;;;;;;;;4980354;28;20413;-45
2023/04/05 07:55:07;;;;;;;12.30;6.93;;;;;;;;;;4982499;28;20423;-45
2023/04/05 07:57:33;;;;;;;10.40;7.93;;;;;;;;;;4982816;28;20430;-45
2023/04/05 07:59:59;;;;;;;10.77;6.50;;;;;;;;;;4983558;28;20470;-44
2023/04/05 08:02:25;;;;;;;8.80;6.80;;;;;;;;;;4978942;28;20497;-45
2023/04/05 08:04:51;;;;;;;14.33;6.60;;;;;;;;;;4975648;28;20455;-46
2023/04/05 08:07:17;;;;;;;12.80;7.20;;;;;;;;;;4984562;28;20467;-45
2023/04/05 08:09:43;;;;;;;15.63;7.37;;;;;;;;;;4985044;28;20835;-45
2023/04/05 08:12:10;;;;;;;8.90;6.07;;;;;;;;;;4986243;28;20488;-45
2023/04/05 08:14:36;;;;;;;7.87;6.20;;;;;;;;;;4985880;28;20784;-46
2023/04/05 08:17:02;;;;;;;10.10;7.00;;;;;;;;;;4985210;28;20434;-45
2023/04/05 08:19:28;;;;;;;8.53;5.63;;;;;;;;;;4980801;28;20407;-45
2023/04/05 08:21:54;;;;;;;5.60;4.70;;;;;;;;;;4985103;28;20774;-45
2023/04/05 08:24:19;;;;;;;6.97;5.57;;;;;;;;;;4987223;28;20493;-45
2023/04/05 08:26:45;;;;;;;6.77;4.77;;;;;;;;;;4986875;28;20467;-44
2023/04/05 08:29:11;;;;;;;5.00;4.60;;;;;;;;;;4982722;28;20493;-45
2023/04/05 08:31:37;;;;;;;9.27;4.20;;;;;;;;;;4987984;28;20515;-45
2023/04/05 08:34:07;;;;;;;5.53;5.00;;;;;;;;;;4984466;28;20499;-45
2023/04/05 08:36:33;;;;;;;6.27;5.70;;;;;;;;;;4985279;28;20463;-44
2023/04/05 08:38:59;;;;;;;9.83;5.40;;;;;;;;;;4980929;28;20441;-46
2023/04/05 08:41:26;;;;;;;6.20;4.70;;;;;;;;;;4983055;28;20428;-45
2023/04/05 08:44:01;;;;;;;5.10;4.60;;;;;;;;;;4980258;28;20422;-44
2023/04/05 08:46:33;;;;;;;9.20;4.77;;;;;;;;;;4987597;28;20440;-44
2023/04/05 08:49:03;;;;;;;5.53;5.03;;;;;;;;;;4982944;28;20415;-44
2023/04/05 08:51:30;;;;;;;7.97;5.67;;;;;;;;;;4980513;28;20467;-45
2023/04/05 08:53:55;;;;;;;7.73;5.20;;;;;;;;;;4984962;28;20416;-45
2023/04/05 08:56:25;;;;;;;7.43;5.30;;;;;;;;;;4980492;28;20436;-45
2023/04/05 08:58:55;;;;;;;7.07;5.60;;;;;;;;;;4984546;28;20783;-45
2023/04/05 09:01:21;;;;;;;5.43;4.70;;;;;;;;;;4984959;28;20418;-45
2023/04/05 09:03:49;;;;;;;6.33;5.37;;;;;;;;;;4979703;28;20435;-45
2023/04/05 09:06:15;;;;;;;8.30;4.70;;;;;;;;;;4974049;28;20962;-44
2023/04/05 09:08:41;;;;;;;7.13;5.40;;;;;;;;;;4979109;28;20410;-44
2023/04/05 09:11:07;;;;;;;5.80;5.13;;;;;;;;;;4975456;28;20503;-44
2023/04/05 09:13:33;;;;;;;5.93;5.27;;;;;;;;;;4976635;28;20448;-45
2023/04/05 09:16:01;;;;;;;4.90;4.50;;;;;;;;;;4979796;28;21038;-45
2023/04/05 09:18:27;;;;;;;6.80;4.77;;;;;;;;;;4975463;28;20507;-44
2023/04/05 09:21:02;;;;;;;5.40;4.63;;;;;;;;;;4978384;28;20821;-45
2023/04/05 09:23:28;;;;;;;5.43;4.70;;;;;;;;;;4982323;28;20420;-44
2023/04/05 09:25:54;;;;;;;8.50;4.60;;;;;;;;;;4983029;28;20441;-45
2023/04/05 09:28:20;;;;;;;4.90;4.40;;;;;;;;;;4981752;28;20421;-45
2023/04/05 09:30:46;;;;;;;6.27;4.67;;;;;;;;;;4979418;28;20495;-45
2023/04/05 09:33:15;;;;;;;8.17;4.77;;;;;;;;;;4978654;28;20832;-45
2023/04/05 09:35:41;;;;;;;6.10;4.93;;;;;;;;;;4974761;28;20436;-45
2023/04/05 09:38:07;;;;;;;7.30;4.97;;;;;;;;;;4977069;28;20781;-46
2023/04/05 09:40:43;;;;;;;6.00;4.40;;;;;;;;;;4978728;28;20416;-45
2023/04/05 09:43:10;;;;;;;6.50;4.80;;;;;;;;;;4982680;28;20477;-47
2023/04/05 09:45:44;;;;;;;6.10;5.33;;;;;;;;;;4982540;28;20408;-45
2023/04/05 09:48:12;;;;;;;7.07;4.80;;;;;;;;;;4977643;28;20510;-44
2023/04/05 09:50:38;;;;;;;7.07;4.93;;;;;;;;;;4972344;28;20460;-44
2023/04/05 09:53:07;;;;;;;6.47;4.70;;;;;;;;;;4973129;28;20424;-44
2023/04/05 09:55:33;;;;;;;7.23;4.90;;;;;;;;;;4973708;28;20421;-45
2023/04/05 09:57:59;;;;;;;8.27;4.80;;;;;;;;;;4973631;28;20483;-45
2023/04/05 10:00:25;;;;;;;6.27;5.40;;;;;;;;;;4973327;28;20472;-44
2023/04/05 10:02:55;;;;;;;5.53;5.03;;;;;;;;;;4972354;28;20429;-45
2023/04/05 10:05:26;;;;;;;5.00;4.60;;;;;;;;;;4973559;28;20504;-45
2023/04/05 10:07:52;;;;;;;6.23;5.63;;;;;;;;;;4972981;28;20796;-44
2023/04/05 10:10:18;;;;;;;6.03;4.87;;;;;;;;;;4973404;28;20456;-45
2023/04/05 10:12:45;;;;;;;6.13;4.97;;;;;;;;;;4973486;28;20420;-45
2023/04/05 10:15:13;;;;;;;5.60;4.30;;;;;;;;;;4973113;28;20412;-44
2023/04/05 10:17:50;;;;;;;5.47;4.87;;;;;;;;;;4971161;28;20536;-44
2023/04/05 10:20:17;;;;;;;5.67;4.83;;;;;;;;;;4973469;28;20427;-44
2023/04/05 10:22:53;;;;;;;6.63;4.97;;;;;;;;;;4973308;28;20806;-45
2023/04/05 10:25:38;;;;;;;5.90;5.00;;;;;;;;;;4973251;28;20416;-45
2023/04/05 10:28:05;;;;;;;5.70;4.77;;;;;;;;;;4973240;28;20434;-45
2023/04/05 10:30:36;;;;;;;6.50;5.20;;;;;;;;;;4972587;28;20461;-45
2023/04/05 10:33:21;;;;;;;6.53;5.93;;;;;;;;;;4972717;28;20448;-45
2023/04/05 10:35:55;;;;;;;6.13;5.30;;;;;;;;;;4953948;28;20436;-46
2023/04/05 10:38:24;;;;;;;5.60;5.10;;;;;;;;;;4954129;28;20492;-45
2023/04/05 10:40:53;;;;;;;5.60;5.10;;;;;;;;;;4970951;28;20437;-45
2023/04/05 10:43:21;;;;;;;5.47;4.90;;;;;;;;;;4972853;28;20515;-45
2023/04/05 10:45:48;;;;;;;5.23;4.73;;;;;;;;;;4971748;28;20458;-45
2023/04/05 10:48:18;;;;;;;6.30;5.00;;;;;;;;;;4970743;28;20857;-45
2023/04/05 10:50:47;;;;;;;6.03;5.30;;;;;;;;;;4972719;28;20457;-45
2023/04/05 10:53:13;;;;;;;6.33;4.73;;;;;;;;;;4972932;28;20827;-45
2023/04/05 10:55:39;;;;;;;5.10;4.60;;;;;;;;;;4972618;28;20468;-45
2023/04/05 10:58:05;;;;;;;5.60;4.53;;;;;;;;;;4972807;28;20409;-46
2023/04/05 11:00:32;;;;;;;4.93;4.40;;;;;;;;;;4972593;28;20435;-45
2023/04/05 11:02:58;;;;;;;5.07;4.57;;;;;;;;;;4972872;28;20432;-46
2023/04/05 11:05:33;;;;;;;5.53;4.43;;;;;;;;;;4972803;28;20421;-44
2023/04/05 11:08:06;;;;;;;5.10;4.60;;;;;;;;;;4972657;28;20612;-45
2023/04/05 11:10:35;;;;;;;6.07;4.60;;;;;;;;;;4973585;28;20466;-46
2023/04/05 11:13:01;;;;;;;5.57;4.63;;;;;;;;;;4974415;28;20423;-45
2023/04/05 11:15:27;;;;;;;6.67;5.20;;;;;;;;;;4972849;28;20413;-45
2023/04/05 11:18:02;;;;;;;6.47;5.60;;;;;;;;;;4971480;28;20475;-45
2023/04/05 11:20:39;;;;;;;6.77;5.27;;;;;;;;;;4971954;28;20437;-45
2023/04/05 11:23:05;;;;;;;5.40;4.90;;;;;;;;;;4972948;28;20421;-45
2023/04/05 11:25:32;;;;;;;5.00;4.50;;;;;;;;;;4972526;28;20528;-45
2023/04/05 11:28:01;;;;;;;5.53;5.03;;;;;;;;;;4972494;28;20423;-45
2023/04/05 11:30:46;;;;;;;8.43;5.70;;;;;;;;;;4972234;28;20499;-45
2023/04/05 11:33:32;;;;;;;7.73;5.47;;;;;;;;;;4972309;28;20424;-44
2023/04/05 11:36:04;;;;;;;6.40;4.93;;;;;;;;;;4972371;28;20436;-45
2023/04/05 11:38:30;;;;;;;6.00;4.80;;;;;;;;;;4972412;28;20415;-45
2023/04/05 11:41:16;;;;;;;7.70;5.73;;;;;;;;;;4972460;28;20448;-46
2023/04/05 11:43:42;;;;;;;6.43;5.20;;;;;;;;;;4975774;28;20420;-47
2023/04/05 11:46:08;;;;;;;7.23;4.97;;;;;;;;;;4976137;28;20902;-46
2023/04/05 11:48:35;;;;;;;7.10;4.87;;;;;;;;;;4974783;28;20516;-45
2023/04/05 11:51:06;;;;;;;5.57;5.07;;;;;;;;;;4974715;28;20456;-46
2023/04/05 11:53:32;;;;;;;5.93;5.20;;;;;;;;;;4976165;28;20413;-45
2023/04/05 11:56:05;;;;;;;6.90;5.40;;;;;;;;;;4975791;28;20443;-45
2023/04/05 11:58:31;;;;;;;5.63;5.13;;;;;;;;;;4976006;28;20431;-45
2023/04/05 12:00:58;;;;;;;5.77;5.27;;;;;;;;;;4975723;28;20913;-45
2023/04/05 12:03:27;;;;;;;6.80;4.77;;;;;;;;;;4975924;28;20428;-45
2023/04/05 12:05:54;;;;;;;7.83;5.83;;;;;;;;;;4975959;28;20451;-45
2023/04/05 12:08:21;;;;;;;7.73;5.70;;;;;;;;;;4975787;28;20409;-44
2023/04/05 12:10:56;;;;;;;6.50;5.30;;;;;;;;;;4976183;28;20458;-44
2023/04/05 12:13:30;;;;;;;6.10;4.97;;;;;;;;;;4975943;28;20417;-46
2023/04/05 12:16:03;;;;;;;7.50;5.40;;;;;;;;;;4975359;28;20432;-44
2023/04/05 12:18:33;;;;;;;5.70;5.20;;;;;;;;;;4974504;28;20468;-45
2023/04/05 12:21:01;;;;;;;7.60;4.90;;;;;;;;;;4975295;28;20427;-45
2023/04/05 12:23:27;;;;;;;9.30;5.20;;;;;;;;;;4980768;28;20506;-45
2023/04/05 12:25:54;;;;;;;7.83;5.00;;;;;;;;;;4979750;28;20876;-45
2023/04/05 12:28:20;;;;;;;5.70;5.10;;;;;;;;;;4983052;28;20508;-45
2023/04/05 12:30:53;;;;;;;5.43;4.93;;;;;;;;;;4981649;28;20984;-45
2023/04/05 12:33:35;;;;;;;6.43;5.83;;;;;;;;;;4976137;28;20401;-45
2023/04/05 12:36:05;;;;;;;7.40;5.33;;;;;;;;;;4983192;28;20920;-45
2023/04/05 12:38:31;;;;;;;6.03;5.47;;;;;;;;;;4984247;28;20441;-44
2023/04/05 12:41:01;;;;;;;6.10;5.17;;;;;;;;;;4984733;28;20462;-45
2023/04/05 12:43:37;;;;;;;5.33;4.83;;;;;;;;;;4980883;28;20421;-45
2023/04/05 12:46:06;;;;;;;7.00;5.33;;;;;;;;;;4984332;28;20439;-44
2023/04/05 12:48:32;;;;;;;6.40;5.80;;;;;;;;;;4983449;28;20430;-44
2023/04/05 12:50:58;;;;;;;8.67;5.13;;;;;;;;;;4981137;28;20475;-44
2023/04/05 12:53:27;;;;;;;6.00;4.90;;;;;;;;;;4983998;28;20416;-45
2023/04/05 12:55:54;;;;;;;6.50;5.27;;;;;;;;;;4988143;28;20432;-44
2023/04/05 12:58:20;;;;;;;5.97;5.47;;;;;;;;;;4975782;28;20413;-45
2023/04/05 13:00:47;;;;;;;6.30;5.53;;;;;;;;;;4982781;28;20798;-45
2023/04/05 13:03:18;;;;;;;7.67;5.57;;;;;;;;;;4988644;28;20416;-46
2023/04/05 13:05:44;;;;;;;6.73;5.50;;;;;;;;;;4986120;28;20438;-45
2023/04/05 13:08:10;;;;;;;7.00;5.30;;;;;;;;;;4980492;28;20421;-46
2023/04/05 13:10:36;;;;;;;5.60;4.87;;;;;;;;;;4980221;28;20466;-46
2023/04/05 13:13:02;;;;;;;10.03;5.50;;;;;;;;;;4984390;28;20404;-45
2023/04/05 13:15:28;;;;;;;8.67;5.50;;;;;;;;;;4985977;28;20405;-46
2023/04/05 13:17:54;;;;;;;6.27;5.43;;;;;;;;;;4982016;28;20864;-46
2023/04/05 13:20:20;;;;;;;8.77;6.80;;;;;;;;;;4982088;28;20421;-45
2023/04/05 13:22:47;;;;;;;4.70;4.30;;;;;;;;;;4981703;28;20727;-45
2023/04/05 13:25:14;;;;;;;8.47;5.20;;;;;;;;;;4978528;28;20558;-45
2023/04/05 13:27:40;;;;;;;5.60;4.93;;;;;;;;;;4985550;28;20433;-44
2023/04/05 13:30:06;;;;;;;9.93;5.77;;;;;;;;;;4983119;28;20430;-44
2023/04/05 13:32:33;;;;;;;7.70;5.63;;;;;;;;;;4983959;28;20484;-45
2023/04/05 13:34:59;;;;;;;5.33;4.80;;;;;;;;;;4983609;28;20916;-44
2023/04/05 13:37:25;;;;;;;8.47;6.93;;;;;;;;;;4983269;28;20435;-45
2023/04/05 13:39:51;;;;;;;7.30;4.93;;;;;;;;;;4982790;28;20429;-44
2023/04/05 13:42:17;;;;;;;9.47;5.53;;;;;;;;;;4982141;28;20420;-44
2023/04/05 13:44:43;;;;;;;6.27;5.40;;;;;;;;;;4986921;28;20418;-45
2023/04/05 13:47:09;;;;;;;5.77;4.50;;;;;;;;;;4981324;28;20994;-44
2023/04/05 13:49:35;;;;;;;5.73;5.13;;;;;;;;;;4980402;28;20447;-45
2023/04/05 13:52:01;;;;;;;4.90;4.40;;;;;;;;;;4982130;28;20464;-44
2023/04/05 13:54:27;;;;;;;5.73;5.00;;;;;;;;;;4982033;28;20408;-45
2023/04/05 13:56:53;;;;;;;6.00;5.17;;;;;;;;;;4982113;28;20437;-47
2023/04/05 13:59:19;;;;;;;7.50;5.70;;;;;;;;;;4986772;28;20424;-45
2023/04/05 14:01:46;;;;;;;7.00;5.33;;;;;;;;;;4985236;28;20477;-45
2023/04/05 14:04:12;;;;;;;7.80;5.27;;;;;;;;;;4979537;28;20412;-45
2023/04/05 14:06:38;;;;;;;6.10;4.90;;;;;;;;;;4978096;28;20475;-45
2023/04/05 14:09:04;;;;;;;12.70;5.70;;;;;;;;;;4983486;28;20409;-45
2023/04/05 14:11:31;;;;;;;6.23;5.57;;;;;;;;;;4984571;28;20487;-45
2023/04/05 14:13:57;;;;;;;6.43;5.83;;;;;;;;;;4982762;28;20535;-45
2023/04/05 14:16:24;;;;;;;5.67;4.90;;;;;;;;;;4984503;28;20428;-44
2023/04/05 14:18:50;;;;;;;6.00;5.00;;;;;;;;;;4984162;28;20432;-45
2023/04/05 14:21:16;;;;;;;5.30;4.80;;;;;;;;;;4975932;28;20433;-45
2023/04/05 14:23:42;;;;;;;6.03;5.20;;;;;;;;;;4984847;28;20837;-45
2023/04/05 14:26:08;;;;;;;5.77;5.27;;;;;;;;;;4982294;28;20465;-45
2023/04/05 14:28:34;;;;;;;6.17;5.57;;;;;;;;;;4983234;28;20401;-45
2023/04/05 14:31:00;;;;;;;6.03;5.53;;;;;;;;;;4982267;28;20551;-44
2023/04/05 14:33:26;;;;;;;5.90;5.33;;;;;;;;;;4982390;28;20756;-44
2023/04/05 14:35:52;;;;;;;8.03;5.90;;;;;;;;;;4982189;28;20515;-44
2023/04/05 14:38:18;;;;;;;9.53;5.17;;;;;;;;;;4981149;28;20834;-46